Time;durP1;ratioP1;P1;durP2;ratioP2;P2;SDS_P1;SDS_P2;PMS_P1;PMS_P2;Temp;Humidity;BMP_temperature;BMP_pressure;BME280_temperature;BME280_humidity;BME280_pressure;Samples;Min_cycle;Max_cycle;Signal;HPM_P1;HPM_P2
2023/01/16 00:00:53;;;;;;;6.75;4.65;;;4.20;99.90;;;;;;5041252;28;20121;-62
2023/01/16 00:03:19;;;;;;;6.88;4.82;;;4.20;99.90;;;;;;5026201;28;20061;-62
2023/01/16 00:05:45;;;;;;;8.38;5.30;;;4.20;99.90;;;;;;5040376;28;20041;-63
2023/01/16 00:08:11;;;;;;;6.85;4.90;;;4.20;99.90;;;;;;5047059;28;20036;-63
2023/01/16 00:10:37;;;;;;;8.27;4.63;;;4.30;99.90;;;;;;5028259;28;20041;-62
2023/01/16 00:13:03;;;;;;;8.57;4.72;;;4.20;99.90;;;;;;5042200;28;20084;-63
2023/01/16 00:15:29;;;;;;;6.25;4.45;;;4.30;99.90;;;;;;5043473;28;20140;-63
2023/01/16 00:17:55;;;;;;;7.70;4.90;;;4.30;99.90;;;;;;5044292;28;20048;-62
2023/01/16 00:20:20;;;;;;;9.70;5.10;;;4.20;99.90;;;;;;5043833;28;20056;-63
2023/01/16 00:22:46;;;;;;;7.65;4.32;;;4.30;99.90;;;;;;5011064;28;20079;-62
2023/01/16 00:25:12;;;;;;;7.88;4.65;;;4.30;99.90;;;;;;5045075;28;20376;-62
2023/01/16 00:27:38;;;;;;;7.72;4.82;;;4.30;99.90;;;;;;5027522;28;20129;-62
2023/01/16 00:30:08;;;;;;;10.27;5.28;;;4.30;99.90;;;;;;5041057;28;20148;-62
2023/01/16 00:32:35;;;;;;;8.35;4.93;;;4.30;99.90;;;;;;5044263;28;20045;-62
2023/01/16 00:35:01;;;;;;;9.38;5.53;;;4.30;99.90;;;;;;5042741;28;20059;-63
2023/01/16 00:37:26;;;;;;;8.43;5.30;;;4.30;99.90;;;;;;5044226;28;20053;-62
2023/01/16 00:39:52;;;;;;;11.43;5.70;;;4.40;99.90;;;;;;5013686;28;20052;-62
2023/01/16 00:42:18;;;;;;;10.20;6.03;;;4.30;99.90;;;;;;5027298;28;20052;-62
2023/01/16 00:44:44;;;;;;;10.73;6.20;;;4.30;99.90;;;;;;5042681;28;20206;-62
2023/01/16 00:47:10;;;;;;;12.30;6.15;;;4.30;99.90;;;;;;5042885;28;20503;-62
2023/01/16 00:49:35;;;;;;;10.25;5.70;;;4.30;99.90;;;;;;5040406;28;20044;-62
2023/01/16 00:52:02;;;;;;;9.15;5.32;;;4.30;99.90;;;;;;5041748;28;20041;-62
2023/01/16 00:54:27;;;;;;;10.57;5.38;;;4.30;99.90;;;;;;5043951;28;20120;-62
2023/01/16 00:56:53;;;;;;;9.15;5.65;;;4.40;99.90;;;;;;5043046;28;20577;-62
2023/01/16 00:59:19;;;;;;;7.13;4.85;;;4.40;99.90;;;;;;5043121;28;20110;-63
2023/01/16 01:01:45;;;;;;;10.00;4.82;;;4.40;99.90;;;;;;5015610;28;20048;-62
2023/01/16 01:04:12;;;;;;;11.80;4.78;;;4.30;99.90;;;;;;5041888;28;20146;-63
2023/01/16 01:06:39;;;;;;;7.90;4.20;;;4.30;99.90;;;;;;5023306;28;20057;-63
2023/01/16 01:09:04;;;;;;;15.43;4.78;;;4.30;99.90;;;;;;5044513;28;20052;-62
2023/01/16 01:11:30;;;;;;;9.90;4.70;;;4.20;99.90;;;;;;5041737;28;20044;-62
2023/01/16 01:13:56;;;;;;;10.48;4.47;;;4.20;99.90;;;;;;5007564;28;20048;-62
2023/01/16 01:16:23;;;;;;;7.82;4.38;;;4.20;99.90;;;;;;5046267;28;20057;-62
2023/01/16 01:18:49;;;;;;;10.15;4.60;;;4.20;99.90;;;;;;5047050;28;20103;-63
2023/01/16 01:21:14;;;;;;;11.23;4.85;;;4.10;99.90;;;;;;5045357;28;20049;-62
2023/01/16 01:23:40;;;;;;;9.13;3.90;;;4.10;99.90;;;;;;5048844;28;20049;-62
2023/01/16 01:26:14;;;;;;;10.23;4.43;;;4.10;99.90;;;;;;5047136;28;21953;-62
2023/01/16 01:28:41;;;;;;;7.72;4.18;;;4.00;99.90;;;;;;5046120;28;20131;-62
2023/01/16 01:31:10;;;;;;;10.68;4.43;;;4.00;99.90;;;;;;5046202;28;20044;-62
2023/01/16 01:33:36;;;;;;;8.75;4.10;;;4.00;99.90;;;;;;5049892;28;20120;-62
2023/01/16 01:36:02;;;;;;;6.90;3.75;;;4.00;99.90;;;;;;5047872;28;20049;-62
2023/01/16 01:38:28;;;;;;;7.53;3.80;;;3.90;99.90;;;;;;5047268;28;20125;-62
2023/01/16 01:40:54;;;;;;;10.73;4.10;;;3.90;99.90;;;;;;5030149;28;20045;-62
2023/01/16 01:43:20;;;;;;;7.72;3.92;;;3.90;99.90;;;;;;5048581;28;21031;-62
2023/01/16 01:45:53;;;;;;;6.05;3.58;;;3.90;99.90;;;;;;5019742;28;20041;-62
2023/01/16 01:48:35;;;;;;;12.27;3.75;;;4.00;99.90;;;;;;5046079;28;20037;-62
2023/01/16 01:51:13;;;;;;;9.73;3.70;;;3.90;99.90;;;;;;5047080;28;20048;-62
2023/01/16 01:53:50;;;;;;;10.07;3.30;;;3.90;99.90;;;;;;5044869;28;20123;-62
2023/01/16 01:56:27;;;;;;;7.13;3.47;;;3.80;99.90;;;;;;5048150;28;20448;-62
2023/01/16 01:58:57;;;;;;;8.88;3.35;;;3.90;99.90;;;;;;5025208;28;20049;-62
2023/01/16 02:01:25;;;;;;;6.60;3.50;;;3.80;99.90;;;;;;5042007;28;20094;-62
2023/01/16 02:04:01;;;;;;;9.13;4.05;;;3.80;99.90;;;;;;5045323;28;20049;-63
2023/01/16 02:06:48;;;;;;;9.23;3.65;;;3.80;99.90;;;;;;5029361;28;20059;-63
2023/01/16 02:09:15;;;;;;;6.32;3.38;;;3.80;99.90;;;;;;5028087;28;20102;-62
2023/01/16 02:11:56;;;;;;;9.00;3.40;;;3.80;99.90;;;;;;5037145;28;20041;-61
2023/01/16 02:14:25;;;;;;;9.60;3.40;;;3.80;99.90;;;;;;5045148;28;20155;-62
2023/01/16 02:20:07;;;;;;;8.13;3.15;;;3.80;99.90;;;;;;5040511;28;20060;-62
2023/01/16 02:23:06;;;;;;;10.05;3.58;;;3.70;99.90;;;;;;5028490;28;20075;-61
2023/01/16 02:25:59;;;;;;;7.07;3.33;;;3.70;99.90;;;;;;5047065;28;20045;-63
2023/01/16 02:28:44;;;;;;;8.15;3.53;;;3.70;99.90;;;;;;5043203;28;20392;-62
2023/01/16 02:31:34;;;;;;;10.00;3.88;;;3.70;99.90;;;;;;5043586;28;20045;-62
2023/01/16 02:34:26;;;;;;;7.85;3.03;;;3.70;99.90;;;;;;5044979;28;20041;-61
2023/01/16 02:37:14;;;;;;;7.18;3.20;;;3.70;99.90;;;;;;5045655;28;20052;-62
2023/01/16 02:39:47;;;;;;;5.93;3.00;;;3.70;99.90;;;;;;5041231;28;20049;-61
2023/01/16 02:42:33;;;;;;;10.85;3.65;;;3.70;99.90;;;;;;5012044;28;20081;-62
2023/01/16 02:45:14;;;;;;;7.38;3.38;;;3.70;99.90;;;;;;5039928;28;20037;-62
2023/01/16 02:48:07;;;;;;;7.80;3.10;;;3.80;99.90;;;;;;5025750;28;20045;-62
2023/01/16 02:51:01;;;;;;;9.18;3.75;;;3.80;99.90;;;;;;5043289;28;20055;-62
2023/01/16 02:53:57;;;;;;;9.52;4.07;;;3.80;99.90;;;;;;5046009;28;20523;-62
2023/01/16 02:56:41;;;;;;;8.85;3.50;;;3.80;99.90;;;;;;5043734;28;20422;-62
2023/01/16 02:59:10;;;;;;;7.28;3.78;;;3.80;99.90;;;;;;5043915;28;20045;-61
2023/01/16 03:01:40;;;;;;;9.13;3.25;;;3.80;99.90;;;;;;5043676;28;20056;-63
2023/01/16 03:04:45;;;;;;;10.93;3.40;;;3.80;99.90;;;;;;5042639;28;20079;-62
2023/01/16 03:07:30;;;;;;;8.07;3.15;;;3.90;99.90;;;;;;5043467;28;20053;-61
2023/01/16 03:10:11;;;;;;;11.05;3.33;;;3.90;99.90;;;;;;5043237;28;20454;-61
2023/01/16 03:12:47;;;;;;;7.18;3.30;;;3.90;99.90;;;;;;5044896;28;20540;-61
2023/01/16 03:15:28;;;;;;;7.47;3.55;;;3.90;99.90;;;;;;5042613;28;20068;-62
2023/01/16 03:18:19;;;;;;;9.18;3.72;;;3.90;99.90;;;;;;5046569;28;20364;-60
2023/01/16 03:20:57;;;;;;;11.68;3.75;;;3.90;99.90;;;;;;5046143;28;20126;-62
2023/01/16 03:23:28;;;;;;;8.48;3.35;;;4.00;99.90;;;;;;5045022;28;20428;-61
2023/01/16 03:25:57;;;;;;;7.93;2.90;;;3.90;99.90;;;;;;5043673;28;20083;-62
2023/01/16 03:28:26;;;;;;;4.90;3.25;;;3.90;99.90;;;;;;5041208;28;20033;-62
2023/01/16 03:31:05;;;;;;;9.10;3.50;;;4.00;99.90;;;;;;5029134;28;20462;-62
2023/01/16 03:33:58;;;;;;;11.13;3.35;;;3.90;99.90;;;;;;5020475;28;20131;-63
2023/01/16 03:36:35;;;;;;;6.15;3.20;;;3.90;99.90;;;;;;5025187;28;20049;-62
2023/01/16 03:39:05;;;;;;;10.38;3.50;;;3.90;99.90;;;;;;5023313;28;20051;-61
2023/01/16 03:41:33;;;;;;;8.02;3.80;;;4.00;99.90;;;;;;5038405;28;20052;-62
2023/01/16 03:44:09;;;;;;;6.68;3.60;;;4.00;99.90;;;;;;5025376;28;20044;-62
2023/01/16 03:46:43;;;;;;;10.75;3.38;;;4.00;99.90;;;;;;5038081;28;20213;-62
2023/01/16 03:49:13;;;;;;;8.57;3.78;;;4.00;99.90;;;;;;5018362;28;20044;-61
2023/01/16 03:51:45;;;;;;;8.48;3.60;;;4.00;99.90;;;;;;5027041;28;20037;-62
2023/01/16 03:54:25;;;;;;;7.13;3.40;;;4.00;99.90;;;;;;5043682;28;20130;-62
2023/01/16 03:56:59;;;;;;;8.10;3.63;;;4.00;99.90;;;;;;5041124;28;20148;-62
2023/01/16 03:59:25;;;;;;;8.05;3.28;;;4.00;99.90;;;;;;5024208;28;20053;-62
2023/01/16 04:01:58;;;;;;;9.23;3.65;;;3.90;99.90;;;;;;5024268;28;20037;-62
2023/01/16 04:04:26;;;;;;;10.15;3.60;;;3.90;99.90;;;;;;5042042;28;20049;-62
2023/01/16 04:07:18;;;;;;;6.55;3.40;;;4.00;99.90;;;;;;5045798;28;20056;-62
2023/01/16 04:09:56;;;;;;;7.95;3.63;;;3.90;99.90;;;;;;5025502;28;20151;-62
2023/01/16 04:12:27;;;;;;;7.72;3.78;;;3.90;99.90;;;;;;5039961;28;20037;-61
2023/01/16 04:14:58;;;;;;;8.38;3.72;;;4.00;99.90;;;;;;5043882;28;20129;-62
2023/01/16 04:17:25;;;;;;;11.95;4.28;;;3.90;99.90;;;;;;5043615;28;20123;-62
2023/01/16 04:19:51;;;;;;;7.70;4.18;;;3.90;99.90;;;;;;5042315;28;20049;-62
2023/01/16 04:22:26;;;;;;;9.18;4.85;;;3.90;99.90;;;;;;5027492;28;20945;-62
2023/01/16 04:24:53;;;;;;;10.68;4.07;;;4.00;99.90;;;;;;5042540;28;20049;-63
2023/01/16 04:27:20;;;;;;;8.23;4.28;;;3.90;99.90;;;;;;5024421;28;20398;-62
2023/01/16 04:29:46;;;;;;;9.88;4.30;;;3.90;99.90;;;;;;5027256;28;20047;-62
2023/01/16 04:32:12;;;;;;;10.55;4.57;;;3.90;99.90;;;;;;5025904;28;20041;-62
2023/01/16 04:34:38;;;;;;;11.10;4.90;;;3.90;99.90;;;;;;5044336;28;20033;-62
2023/01/16 04:37:04;;;;;;;8.95;4.65;;;3.80;99.90;;;;;;5028502;28;20049;-62
2023/01/16 04:39:30;;;;;;;11.57;5.30;;;3.90;99.90;;;;;;5043923;28;20049;-62
2023/01/16 04:41:56;;;;;;;12.95;4.75;;;3.90;99.90;;;;;;5025480;28;20040;-62
2023/01/16 04:44:22;;;;;;;9.80;5.00;;;3.90;99.90;;;;;;5043186;28;20049;-62
2023/01/16 04:46:48;;;;;;;9.88;4.38;;;3.90;99.90;;;;;;5009083;28;20064;-61
2023/01/16 04:49:13;;;;;;;11.93;5.20;;;3.90;99.90;;;;;;5043689;28;20052;-62
2023/01/16 04:51:39;;;;;;;9.05;5.25;;;3.80;99.90;;;;;;5043987;28;20824;-62
2023/01/16 04:54:06;;;;;;;9.90;5.20;;;3.90;99.90;;;;;;5046060;28;20498;-62
2023/01/16 04:56:33;;;;;;;13.98;5.82;;;3.90;99.90;;;;;;5040653;28;20052;-61
2023/01/16 04:58:59;;;;;;;10.05;5.25;;;3.90;99.90;;;;;;5040879;28;20052;-62
2023/01/16 05:01:25;;;;;;;10.23;5.80;;;3.90;99.90;;;;;;5025556;28;20124;-62
2023/01/16 05:03:50;;;;;;;11.50;5.93;;;3.90;99.90;;;;;;5040485;28;20045;-61
2023/01/16 05:06:17;;;;;;;11.23;6.35;;;3.80;99.90;;;;;;5038388;28;20059;-62
2023/01/16 05:08:43;;;;;;;12.70;6.50;;;3.90;99.90;;;;;;5043801;28;20045;-62
2023/01/16 05:11:09;;;;;;;12.32;7.35;;;3.90;99.90;;;;;;5037466;28;20060;-62
2023/01/16 05:13:35;;;;;;;10.02;6.88;;;3.90;99.90;;;;;;5041303;28;20395;-62
2023/01/16 05:16:00;;;;;;;13.73;7.00;;;4.00;99.90;;;;;;5011182;28;20065;-62
2023/01/16 05:18:26;;;;;;;13.73;6.78;;;3.90;99.90;;;;;;5041975;28;20388;-61
2023/01/16 05:20:52;;;;;;;12.63;7.60;;;3.90;99.90;;;;;;5023036;28;20056;-62
2023/01/16 05:23:18;;;;;;;15.77;7.25;;;3.90;99.90;;;;;;5041610;28;20049;-63
2023/01/16 05:25:44;;;;;;;15.85;7.10;;;3.90;99.90;;;;;;5039670;28;20075;-62
2023/01/16 05:28:11;;;;;;;15.73;7.22;;;3.80;99.90;;;;;;5045168;28;20048;-61
2023/01/16 05:30:36;;;;;;;14.23;7.47;;;3.90;99.90;;;;;;5041087;28;20076;-63
2023/01/16 05:33:04;;;;;;;12.40;6.85;;;3.80;99.90;;;;;;5043405;28;20084;-62
2023/01/16 05:35:30;;;;;;;13.70;7.00;;;3.80;99.90;;;;;;5042729;28;20114;-63
2023/01/16 05:37:56;;;;;;;12.43;7.00;;;3.80;99.90;;;;;;5017323;28;20503;-61
2023/01/16 05:40:22;;;;;;;12.63;6.82;;;3.80;99.90;;;;;;5044231;28;20052;-62
2023/01/16 05:42:47;;;;;;;14.73;7.15;;;3.70;99.90;;;;;;5016505;28;20160;-62
2023/01/16 05:45:13;;;;;;;11.95;7.18;;;3.70;99.90;;;;;;5039041;28;20041;-61
2023/01/16 05:47:39;;;;;;;15.13;7.57;;;3.70;99.90;;;;;;5043223;28;20056;-62
2023/01/16 05:50:06;;;;;;;12.38;7.05;;;3.60;99.90;;;;;;5043465;28;20049;-62
2023/01/16 05:52:32;;;;;;;13.75;7.65;;;3.60;99.90;;;;;;5024276;28;20099;-62
2023/01/16 05:54:58;;;;;;;12.55;7.60;;;3.60;99.90;;;;;;5007908;28;20483;-62
2023/01/16 05:57:24;;;;;;;17.73;7.88;;;3.60;99.90;;;;;;5023921;28;20055;-62
2023/01/16 05:59:51;;;;;;;12.45;7.80;;;3.50;99.90;;;;;;5024508;28;20068;-62
2023/01/16 06:02:17;;;;;;;13.88;8.15;;;3.50;99.90;;;;;;5044190;28;20107;-62
2023/01/16 06:04:44;;;;;;;14.98;8.30;;;3.50;99.90;;;;;;5026721;28;20263;-62
2023/01/16 06:07:11;;;;;;;17.33;8.65;;;3.50;99.90;;;;;;5046803;28;20036;-63
2023/01/16 06:09:37;;;;;;;16.08;8.75;;;3.50;99.90;;;;;;5044613;28;20056;-62
2023/01/16 06:12:03;;;;;;;15.23;9.43;;;3.50;99.90;;;;;;5045066;28;20091;-62
2023/01/16 06:14:29;;;;;;;17.90;9.55;;;3.40;99.90;;;;;;5045942;28;20033;-62
2023/01/16 06:16:55;;;;;;;15.20;9.15;;;3.40;99.90;;;;;;5038897;28;20068;-61
2023/01/16 06:19:20;;;;;;;18.63;9.88;;;3.40;99.90;;;;;;5041967;28;20143;-62
2023/01/16 06:21:46;;;;;;;20.13;10.18;;;3.40;99.90;;;;;;5045371;28;20053;-62
2023/01/16 06:24:12;;;;;;;20.50;10.10;;;3.40;99.90;;;;;;5045236;28;20051;-61
2023/01/16 06:26:38;;;;;;;15.00;9.73;;;3.30;99.90;;;;;;5040548;28;20057;-62
2023/01/16 06:29:03;;;;;;;16.95;10.07;;;3.40;99.90;;;;;;5043021;28;20095;-62
2023/01/16 06:31:30;;;;;;;19.85;10.68;;;3.40;99.90;;;;;;5040369;28;20050;-62
2023/01/16 06:33:56;;;;;;;18.75;10.68;;;3.50;99.90;;;;;;5038678;28;20049;-62
2023/01/16 06:36:22;;;;;;;19.30;11.32;;;3.40;99.90;;;;;;5036656;28;20494;-62
2023/01/16 06:38:47;;;;;;;23.30;11.45;;;3.40;99.90;;;;;;5040673;28;20048;-62
2023/01/16 06:41:13;;;;;;;19.05;11.68;;;3.40;99.90;;;;;;5038511;28;20048;-61
2023/01/16 06:43:39;;;;;;;20.05;11.57;;;3.50;99.90;;;;;;5039599;28;20123;-62
2023/01/16 06:46:05;;;;;;;21.17;11.88;;;3.50;99.90;;;;;;5024335;28;20146;-62
2023/01/16 06:48:31;;;;;;;22.77;11.20;;;3.50;99.90;;;;;;5021995;28;20049;-61
2023/01/16 06:50:59;;;;;;;21.50;11.02;;;3.50;99.90;;;;;;5042081;28;20115;-62
2023/01/16 06:53:25;;;;;;;22.10;10.60;;;3.60;99.90;;;;;;5040516;28;20048;-62
2023/01/16 06:55:50;;;;;;;21.25;10.93;;;3.50;99.90;;;;;;5041149;28;20053;-62
2023/01/16 06:58:16;;;;;;;18.33;10.50;;;3.50;99.90;;;;;;5047179;28;20446;-62
2023/01/16 07:00:42;;;;;;;20.90;11.13;;;3.50;99.90;;;;;;5044034;28;20048;-62
2023/01/16 07:03:09;;;;;;;17.85;10.63;;;3.50;99.90;;;;;;5042237;28;20063;-62
2023/01/16 07:05:35;;;;;;;19.92;10.50;;;3.50;99.90;;;;;;5014988;28;20045;-60
2023/01/16 07:08:00;;;;;;;16.63;9.73;;;3.50;99.90;;;;;;5014736;28;20129;-60
2023/01/16 07:10:27;;;;;;;17.08;10.05;;;3.50;99.90;;;;;;5036061;28;20040;-60
2023/01/16 07:12:53;;;;;;;19.10;11.30;;;3.50;99.90;;;;;;5016778;28;20529;-58
2023/01/16 07:23:44;;;;;;;14.98;8.88;;;3.40;99.90;;;;;;5046031;28;20029;-60
2023/01/16 07:26:12;;;;;;;17.50;9.70;;;3.40;99.90;;;;;;5038443;28;20040;-60
2023/01/16 07:28:39;;;;;;;17.30;9.10;;;3.40;99.90;;;;;;5046809;28;20048;-60
2023/01/16 07:31:06;;;;;;;17.20;9.18;;;3.30;99.90;;;;;;5045952;28;20045;-61
2023/01/16 07:33:32;;;;;;;17.42;8.90;;;3.40;99.90;;;;;;5045436;28;20097;-61
2023/01/16 07:35:58;;;;;;;20.35;8.60;;;3.40;99.90;;;;;;5025462;28;20057;-61
2023/01/16 07:38:24;;;;;;;15.77;8.95;;;3.40;99.90;;;;;;5027836;28;20060;-60
2023/01/16 07:40:50;;;;;;;18.52;9.25;;;3.40;99.90;;;;;;5044093;28;20048;-60
2023/01/16 07:43:16;;;;;;;21.90;9.20;;;3.40;99.90;;;;;;5027926;28;20415;-61
2023/01/16 07:45:42;;;;;;;16.55;7.50;;;3.40;99.90;;;;;;5047014;28;20402;-60
2023/01/16 07:48:07;;;;;;;13.07;7.47;;;3.40;99.90;;;;;;5012181;28;20556;-60
2023/01/16 07:50:33;;;;;;;13.20;7.43;;;3.40;99.90;;;;;;5045554;28;20033;-61
2023/01/16 07:52:59;;;;;;;18.52;8.70;;;3.40;99.90;;;;;;5042551;28;20106;-60
2023/01/16 07:55:25;;;;;;;15.95;7.63;;;3.40;99.90;;;;;;5044914;28;20044;-60
2023/01/16 07:57:51;;;;;;;14.52;8.65;;;3.40;99.90;;;;;;5043563;28;20052;-60
2023/01/16 08:00:17;;;;;;;17.52;9.50;;;3.40;99.90;;;;;;5046284;28;21058;-60
2023/01/16 08:02:43;;;;;;;16.02;8.60;;;3.40;99.90;;;;;;5026078;28;20422;-59
2023/01/16 08:05:09;;;;;;;17.52;9.45;;;3.40;99.90;;;;;;5028034;28;20074;-60
2023/01/16 08:07:35;;;;;;;14.98;8.73;;;3.40;99.90;;;;;;5046371;28;20033;-60
2023/01/16 08:10:02;;;;;;;19.63;9.50;;;3.40;99.90;;;;;;5007761;28;20033;-60
2023/01/16 08:12:28;;;;;;;18.27;9.35;;;3.40;99.90;;;;;;5046395;28;20052;-60
2023/01/16 08:14:54;;;;;;;18.50;9.50;;;3.40;99.90;;;;;;5044046;28;20052;-60
2023/01/16 08:17:20;;;;;;;16.00;8.80;;;3.40;99.90;;;;;;5008380;28;20080;-60
2023/01/16 08:19:45;;;;;;;14.05;8.50;;;3.30;99.90;;;;;;5005380;28;20519;-60
2023/01/16 08:22:11;;;;;;;16.77;9.15;;;3.40;99.90;;;;;;5006530;28;20045;-60
2023/01/16 08:24:37;;;;;;;14.82;8.18;;;3.40;99.90;;;;;;5002485;28;20133;-60
2023/01/16 08:27:03;;;;;;;17.10;7.45;;;3.40;99.90;;;;;;5001966;28;20050;-60
2023/01/16 08:29:28;;;;;;;15.35;7.65;;;3.40;99.90;;;;;;5003037;28;20046;-60
2023/01/16 08:31:54;;;;;;;13.73;7.28;;;3.40;99.90;;;;;;5003943;28;20186;-60
2023/01/16 08:34:20;;;;;;;16.38;7.45;;;3.40;99.90;;;;;;5006144;28;20037;-60
2023/01/16 08:36:46;;;;;;;17.65;7.35;;;3.40;99.90;;;;;;5001055;28;20436;-60
2023/01/16 08:39:12;;;;;;;13.65;7.78;;;3.40;99.90;;;;;;5002128;28;20050;-60
2023/01/16 08:53:00;;;;;;;14.85;7.93;;;3.50;99.90;;;;;;5004328;28;20045;-60
2023/01/16 08:55:26;;;;;;;14.30;8.20;;;3.50;99.90;;;;;;5002027;28;20056;-60
2023/01/16 08:57:52;;;;;;;11.90;7.50;;;3.50;99.90;;;;;;5004610;28;20065;-60
2023/01/16 09:00:19;;;;;;;18.60;8.15;;;3.50;99.90;;;;;;5003059;28;20048;-60
2023/01/16 09:02:46;;;;;;;13.70;8.48;;;3.60;99.90;;;;;;5003384;28;20141;-60
2023/01/16 09:05:13;;;;;;;16.75;8.50;;;3.60;99.90;;;;;;5005114;28;20042;-60
2023/01/16 09:07:39;;;;;;;14.27;8.27;;;3.60;99.90;;;;;;5007553;28;20041;-60
2023/01/16 09:10:06;;;;;;;15.45;8.07;;;3.60;99.90;;;;;;5002317;28;20511;-61
2023/01/16 09:15:17;;;;;;;14.50;7.72;;;3.60;99.90;;;;;;5002180;28;20551;-60
2023/01/16 09:17:42;;;;;;;14.10;8.32;;;3.70;99.90;;;;;;5002082;28;20057;-60
2023/01/16 09:20:09;;;;;;;11.38;7.07;;;3.70;99.90;;;;;;5005776;28;20599;-61
2023/01/16 09:22:35;;;;;;;12.27;6.68;;;3.70;99.90;;;;;;5003165;28;20050;-60
2023/01/16 09:25:01;;;;;;;14.50;7.15;;;3.70;99.90;;;;;;5003589;28;20122;-61
2023/01/16 09:27:27;;;;;;;14.95;7.10;;;3.70;99.90;;;;;;5004323;28;20038;-60
2023/01/16 09:29:52;;;;;;;14.60;6.88;;;3.70;99.90;;;;;;5004952;28;20041;-61
2023/01/16 09:32:19;;;;;;;13.88;6.88;;;3.70;99.90;;;;;;5004761;28;20078;-60
2023/01/16 09:34:45;;;;;;;15.65;6.97;;;3.80;99.90;;;;;;5005922;28;20034;-61
2023/01/16 09:37:12;;;;;;;15.15;7.20;;;3.80;99.90;;;;;;5008112;28;20097;-60
2023/01/16 09:39:38;;;;;;;14.32;6.65;;;3.80;99.90;;;;;;5009160;28;20498;-60
2023/01/16 09:45:30;;;;;;;10.15;6.15;;;3.90;99.90;;;;;;5007208;28;20081;-60
2023/01/16 09:48:28;;;;;;;15.88;6.68;;;3.90;99.90;;;;;;5008742;28;20184;-60
2023/01/16 09:50:58;;;;;;;10.45;5.80;;;3.90;99.90;;;;;;5008275;28;20073;-60
2023/01/16 09:59:25;;;;;;;10.52;5.40;;;4.00;99.90;;;;;;5009987;28;20076;-60
2023/01/16 10:01:57;;;;;;;12.65;6.38;;;4.00;99.90;;;;;;5010243;28;20048;-61
2023/01/16 10:04:25;;;;;;;9.90;5.72;;;4.00;99.90;;;;;;5007149;28;20512;-60
2023/01/16 10:07:03;;;;;;;10.45;5.93;;;4.00;99.90;;;;;;5023195;28;20451;-60
2023/01/16 10:09:51;;;;;;;12.40;6.10;;;4.00;99.90;;;;;;5007505;28;20160;-60
2023/01/16 10:12:18;;;;;;;12.20;5.40;;;4.00;99.90;;;;;;5005624;28;20508;-61
2023/01/16 10:15:04;;;;;;;11.55;5.63;;;4.10;99.90;;;;;;5007424;28;20133;-60
2023/01/16 10:17:44;;;;;;;9.65;5.40;;;4.10;99.90;;;;;;5038272;28;20514;-60
2023/01/16 10:20:25;;;;;;;12.85;5.47;;;4.10;99.90;;;;;;4990298;28;20048;-60
2023/01/16 10:22:54;;;;;;;10.13;4.85;;;4.00;99.90;;;;;;5032055;28;20118;-61
2023/01/16 10:25:26;;;;;;;15.82;5.25;;;4.10;99.90;;;;;;5044403;28;20045;-61
2023/01/16 10:27:55;;;;;;;12.07;5.50;;;4.10;99.90;;;;;;5032075;28;20110;-60
2023/01/16 10:30:26;;;;;;;7.90;4.30;;;4.10;99.90;;;;;;5047495;28;20139;-60
2023/01/16 10:33:07;;;;;;;10.07;5.00;;;4.10;99.90;;;;;;5029397;28;20050;-61
2023/01/16 10:35:38;;;;;;;11.18;4.40;;;4.10;99.90;;;;;;5047181;28;20543;-61
2023/01/16 10:38:43;;;;;;;8.48;4.70;;;4.10;99.90;;;;;;5025641;28;20063;-58
2023/01/16 10:50:26;;;;;;;8.82;4.25;;;4.20;99.90;;;;;;5047363;28;20033;-60
2023/01/16 10:52:53;;;;;;;14.30;4.22;;;4.20;99.90;;;;;;5047810;28;20044;-61
2023/01/16 10:55:19;;;;;;;9.23;4.18;;;4.20;99.90;;;;;;5027769;28;20067;-59
2023/01/16 10:57:55;;;;;;;9.40;3.50;;;4.20;99.90;;;;;;5028222;28;20055;-61
2023/01/16 11:00:37;;;;;;;5.68;3.90;;;4.20;99.90;;;;;;5046855;28;20048;-61
2023/01/16 11:03:19;;;;;;;7.63;3.65;;;4.20;99.90;;;;;;5029804;28;20491;-61
2023/01/16 11:05:46;;;;;;;8.70;4.28;;;4.20;99.90;;;;;;5046415;28;20088;-60
2023/01/16 11:08:15;;;;;;;6.10;3.50;;;4.20;99.90;;;;;;5030299;28;20500;-60
2023/01/16 11:10:43;;;;;;;5.13;2.63;;;4.20;99.90;;;;;;5011191;28;20487;-58
2023/01/16 11:19:19;;;;;;;3.55;2.63;;;4.00;99.90;;;;;;5046580;28;20045;-61
2023/01/16 11:21:50;;;;;;;5.13;2.50;;;4.00;99.90;;;;;;5047054;28;20053;-59
2023/01/16 11:24:30;;;;;;;4.22;2.35;;;4.00;99.90;;;;;;5044590;28;20061;-60
2023/01/16 11:26:58;;;;;;;4.63;2.25;;;3.90;99.90;;;;;;5044319;28;20041;-61
2023/01/16 11:29:29;;;;;;;4.05;2.25;;;3.90;99.90;;;;;;5046650;28;20499;-60
2023/01/16 11:31:58;;;;;;;4.30;2.10;;;3.80;99.90;;;;;;5028508;28;20049;-61
2023/01/16 11:34:28;;;;;;;3.67;2.20;;;3.80;99.90;;;;;;5047512;28;20044;-60
2023/01/16 11:37:02;;;;;;;5.10;2.20;;;3.80;99.90;;;;;;5046738;28;20052;-60
2023/01/16 11:39:31;;;;;;;3.88;2.20;;;3.80;99.90;;;;;;5044761;28;20068;-60
2023/01/16 11:41:59;;;;;;;2.70;1.80;;;3.70;99.90;;;;;;5020298;28;20045;-61
2023/01/16 11:47:21;;;;;;;6.40;2.40;;;3.70;99.90;;;;;;5024375;28;20060;-60
2023/01/16 11:49:49;;;;;;;3.35;2.13;;;3.70;99.90;;;;;;5046312;28;20063;-60
2023/01/16 11:52:26;;;;;;;5.07;2.17;;;3.70;99.90;;;;;;5046468;28;20044;-61
2023/01/16 11:54:57;;;;;;;2.45;1.85;;;3.70;99.90;;;;;;5043471;28;20073;-61
2023/01/16 11:57:28;;;;;;;3.83;2.15;;;3.60;99.90;;;;;;5027284;28;20120;-61
2023/01/16 12:00:16;;;;;;;4.93;2.00;;;3.70;99.90;;;;;;5044768;28;20131;-61
2023/01/16 12:03:23;;;;;;;4.25;2.05;;;3.70;99.90;;;;;;5027205;28;20127;-59
2023/01/16 12:06:20;;;;;;;3.80;2.03;;;3.70;99.90;;;;;;4981741;28;20129;-60
2023/01/16 12:09:00;;;;;;;4.07;2.10;;;3.70;99.90;;;;;;4966885;28;20142;-61
2023/01/16 12:14:17;;;;;;;3.40;1.90;;;3.70;99.90;;;;;;5031223;28;20503;-60
2023/01/16 12:14:55;;;;;;;2.70;2.00;;;3.70;99.90;;;;;;5044626;28;20045;-61
2023/01/16 12:17:30;;;;;;;4.28;2.28;;;3.70;99.90;;;;;;5011237;28;20060;-60
2023/01/16 12:20:08;;;;;;;3.28;2.28;;;3.80;99.90;;;;;;5005992;28;20381;-61
2023/01/16 12:22:55;;;;;;;3.15;1.95;;;3.70;99.90;;;;;;5005398;28;20444;-60
2023/01/16 12:25:37;;;;;;;3.58;2.20;;;3.80;99.90;;;;;;5019605;28;20046;-61
2023/01/16 12:28:20;;;;;;;4.18;2.20;;;3.80;99.90;;;;;;5005056;28;20516;-60
2023/01/16 12:31:21;;;;;;;3.35;1.92;;;3.70;99.90;;;;;;5005640;28;20045;-60
2023/01/16 12:34:11;;;;;;;3.33;2.45;;;3.70;99.90;;;;;;5005638;28;20038;-61
2023/01/16 12:36:46;;;;;;;2.85;2.10;;;3.80;99.90;;;;;;5005676;28;20049;-60
2023/01/16 12:39:27;;;;;;;3.92;2.22;;;3.80;99.90;;;;;;5004996;28;20091;-61
2023/01/16 12:45:00;;;;;;;3.88;2.40;;;3.80;99.90;;;;;;5005344;28;20559;-60
2023/01/16 12:48:04;;;;;;;5.03;1.92;;;3.80;99.90;;;;;;5006786;28;20041;-59
2023/01/16 12:50:39;;;;;;;3.33;2.13;;;3.80;99.90;;;;;;5004863;28;20041;-60
2023/01/16 12:53:22;;;;;;;4.82;2.47;;;3.80;99.90;;;;;;5005238;28;20139;-60
2023/01/16 12:56:08;;;;;;;2.97;2.17;;;3.80;99.90;;;;;;5004516;28;20128;-59
2023/01/16 12:58:39;;;;;;;3.20;2.28;;;3.80;99.90;;;;;;5005840;28;20619;-60
2023/01/16 13:01:15;;;;;;;6.20;2.30;;;3.80;99.90;;;;;;5001103;28;20120;-60
2023/01/16 13:03:52;;;;;;;4.00;2.58;;;3.90;99.90;;;;;;5004583;28;20076;-60
2023/01/16 13:06:28;;;;;;;5.78;2.58;;;3.90;99.90;;;;;;5003406;28;20046;-60
2023/01/16 13:09:00;;;;;;;5.25;2.85;;;3.90;99.90;;;;;;5002325;28;20413;-60
2023/01/16 13:14:23;;;;;;;3.38;2.60;;;3.90;99.90;;;;;;5011779;28;20378;-61
2023/01/16 13:17:08;;;;;;;5.20;2.90;;;4.00;99.90;;;;;;5026229;28;20064;-60
2023/01/16 13:19:40;;;;;;;6.50;2.90;;;4.00;99.90;;;;;;5051328;28;20049;-59
2023/01/16 13:22:09;;;;;;;4.03;3.10;;;4.00;99.90;;;;;;5050604;28;20068;-60
2023/01/16 13:24:44;;;;;;;4.22;2.80;;;3.90;99.90;;;;;;5029755;28;20055;-60
2023/01/16 13:27:15;;;;;;;5.00;2.88;;;4.00;99.90;;;;;;5050578;28;20045;-60
2023/01/16 13:30:02;;;;;;;4.45;2.60;;;4.10;99.90;;;;;;5052200;28;20107;-60
2023/01/16 13:32:36;;;;;;;6.03;2.88;;;4.10;99.90;;;;;;5035100;28;20037;-59
2023/01/16 13:35:08;;;;;;;6.22;3.25;;;4.10;99.90;;;;;;5051181;28;20416;-60
2023/01/16 13:38:19;;;;;;;6.43;3.13;;;4.10;99.90;;;;;;5050865;28;20045;-61
2023/01/16 13:40:58;;;;;;;3.20;2.63;;;4.10;99.90;;;;;;5051479;28;20045;-61
2023/01/16 13:46:14;;;;;;;5.53;3.10;;;4.10;99.90;;;;;;5051678;28;20146;-61
2023/01/16 13:48:40;;;;;;;4.80;2.80;;;4.20;99.90;;;;;;5031842;28;20462;-60
2023/01/16 13:51:14;;;;;;;5.35;3.42;;;4.20;99.90;;;;;;5049723;28;20412;-60
2023/01/16 13:53:41;;;;;;;7.95;3.13;;;4.20;99.90;;;;;;5048281;28;20510;-60
2023/01/16 13:56:12;;;;;;;4.45;3.08;;;4.20;99.90;;;;;;5051574;28;21208;-61
2023/01/16 13:58:40;;;;;;;6.65;3.20;;;4.20;99.90;;;;;;5051817;28;20407;-61
2023/01/16 14:01:06;;;;;;;6.53;3.30;;;4.20;99.90;;;;;;5031834;28;20145;-60
2023/01/16 14:03:34;;;;;;;6.95;3.42;;;4.20;99.90;;;;;;5051619;28;20041;-60
2023/01/16 14:06:18;;;;;;;3.67;3.13;;;4.20;99.90;;;;;;5032121;28;20049;-59
2023/01/16 14:09:11;;;;;;;5.90;3.50;;;4.30;99.90;;;;;;5049721;28;20544;-58
2023/01/16 14:11:39;;;;;;;;;;;4.20;99.90;;;;;;5052294;28;20082;-60
2023/01/16 14:17:14;;;;;;;4.20;3.03;;;4.30;99.90;;;;;;5024488;28;20057;-60